createdAt,value
2018-11-11T00:00:49.618Z,12.64
2018-11-11T00:01:49.591Z,12.67
2018-11-11T00:02:49.587Z,12.63
2018-11-11T00:03:49.564Z,12.51
2018-11-11T00:04:49.555Z,12.57
2018-11-11T00:05:49.570Z,12.63
2018-11-11T00:06:49.529Z,12.63
2018-11-11T00:07:49.530Z,12.63
2018-11-11T00:08:49.511Z,12.64
2018-11-11T00:09:49.494Z,12.62
2018-11-11T00:10:49.534Z,12.60
2018-11-11T00:11:49.472Z,12.70
2018-11-11T00:12:49.463Z,12.66
2018-11-11T00:13:49.455Z,12.62
2018-11-11T00:14:49.440Z,12.64
2018-11-11T00:15:49.425Z,12.51
2018-11-11T00:16:49.433Z,12.48
2018-11-11T00:17:49.402Z,12.46
2018-11-11T00:18:49.395Z,12.44
2018-11-11T00:19:49.382Z,12.34
2018-11-11T00:20:49.367Z,12.51
2018-11-11T00:21:49.463Z,12.44
2018-11-11T00:22:49.344Z,12.44
2018-11-11T00:23:49.334Z,12.39
2018-11-11T00:24:49.320Z,12.34
2018-11-11T00:25:49.310Z,12.49
2018-11-11T00:26:49.323Z,12.46
2018-11-11T00:27:49.286Z,12.44
2018-11-11T00:28:49.342Z,12.34
2018-11-11T00:29:49.269Z,12.38
2018-11-11T00:30:49.258Z,12.45
2018-11-11T00:31:49.240Z,12.41
2018-11-11T00:32:49.246Z,12.45
2018-11-11T00:33:49.216Z,12.42
2018-11-11T00:34:49.209Z,12.34
2018-11-11T00:35:49.193Z,12.29
2018-11-11T00:36:49.181Z,12.31
2018-11-11T00:37:49.202Z,12.42
2018-11-11T00:38:49.163Z,12.38
2018-11-11T00:39:49.146Z,12.34
2018-11-11T00:40:49.136Z,12.33
2018-11-11T00:41:49.121Z,12.33
2018-11-11T00:42:49.130Z,12.26
2018-11-11T00:43:49.101Z,12.24
2018-11-11T00:44:49.089Z,12.30
2018-11-11T00:45:49.076Z,12.26
2018-11-11T00:46:49.067Z,12.26
2018-11-11T00:47:49.075Z,12.23
2018-11-11T00:48:49.041Z,12.20
2018-11-11T00:49:49.030Z,12.21
2018-11-11T00:50:49.019Z,12.12
2018-11-11T00:51:49.005Z,12.11
2018-11-11T00:52:49.029Z,12.16
2018-11-11T00:53:48.985Z,12.08
2018-11-11T00:54:48.977Z,12.09
2018-11-11T00:55:48.959Z,12.08
2018-11-11T00:56:48.949Z,12.11
2018-11-11T00:57:48.959Z,12.11
2018-11-11T00:58:48.927Z,12.11
2018-11-11T00:59:48.913Z,12.09
2018-11-11T01:00:48.907Z,12.05
2018-11-11T01:01:48.889Z,12.01
2018-11-11T01:02:48.898Z,12.09
2018-11-11T01:03:48.869Z,12.12
2018-11-11T01:04:48.855Z,12.15
2018-11-11T01:05:48.842Z,12.21
2018-11-11T01:06:48.833Z,12.21
2018-11-11T01:07:48.841Z,12.19
2018-11-11T01:08:48.808Z,12.23
2018-11-11T01:09:48.796Z,12.24
2018-11-11T01:10:48.789Z,12.31
2018-11-11T01:11:48.781Z,12.20
2018-11-11T01:12:48.788Z,12.27
2018-11-11T01:13:48.753Z,12.24
2018-11-11T01:14:48.739Z,12.19
2018-11-11T01:15:48.730Z,12.24
2018-11-11T01:16:48.717Z,12.20
2018-11-11T01:17:48.722Z,12.24
2018-11-11T01:18:48.693Z,12.26
2018-11-11T01:19:48.681Z,12.31
2018-11-11T01:20:48.671Z,12.29
2018-11-11T01:21:48.657Z,12.33
2018-11-11T01:22:48.663Z,12.20
2018-11-11T01:23:48.636Z,12.24
2018-11-11T01:24:48.625Z,12.34
2018-11-11T01:25:48.612Z,12.34
2018-11-11T01:26:48.599Z,12.38
2018-11-11T01:27:48.606Z,12.31
2018-11-11T01:28:48.576Z,12.27
2018-11-11T01:29:48.566Z,12.26
2018-11-11T01:30:48.553Z,12.20
2018-11-11T01:31:48.542Z,12.24
2018-11-11T01:32:48.548Z,12.26
2018-11-11T01:33:48.518Z,12.30
2018-11-11T01:34:48.505Z,12.24
2018-11-11T01:35:48.495Z,12.23
2018-11-11T01:36:48.484Z,12.21
2018-11-11T01:37:48.497Z,12.20
2018-11-11T01:38:48.460Z,12.16
2018-11-11T01:39:48.449Z,12.24
2018-11-11T01:40:48.436Z,12.29
2018-11-11T01:41:48.427Z,12.37
2018-11-11T01:42:48.414Z,12.31
2018-11-11T01:43:48.421Z,12.37
2018-11-11T01:44:48.392Z,12.37
2018-11-11T01:45:48.379Z,12.48
2018-11-11T01:46:48.366Z,12.34
2018-11-11T01:47:48.355Z,12.37
2018-11-11T01:48:48.361Z,12.37
2018-11-11T01:49:48.333Z,12.30
2018-11-11T01:50:48.321Z,12.29
2018-11-11T01:51:48.312Z,12.27
2018-11-11T01:52:48.300Z,12.21
2018-11-11T01:53:48.307Z,12.16
2018-11-11T01:54:48.273Z,12.19
2018-11-11T01:55:48.262Z,12.16
2018-11-11T01:56:48.253Z,12.15
2018-11-11T01:57:48.239Z,12.23
2018-11-11T01:58:48.226Z,12.24
2018-11-11T01:59:48.235Z,12.26
2018-11-11T02:00:48.204Z,12.30
2018-11-11T02:01:48.192Z,12.30
2018-11-11T02:02:48.184Z,12.24
2018-11-11T02:03:48.170Z,12.30
2018-11-11T02:04:48.177Z,12.23
2018-11-11T02:05:48.147Z,12.30
2018-11-11T02:06:48.135Z,12.23
2018-11-11T02:07:48.123Z,12.15
2018-11-11T02:08:48.110Z,12.27
2018-11-11T02:09:48.193Z,12.24
2018-11-11T02:10:48.089Z,12.20
2018-11-11T02:11:48.078Z,12.24
2018-11-11T02:12:48.065Z,12.24
2018-11-11T02:13:48.052Z,12.15
2018-11-11T02:14:48.065Z,12.16
2018-11-11T02:15:48.030Z,12.13
2018-11-11T02:16:48.018Z,12.12
2018-11-11T02:17:48.009Z,12.19
2018-11-11T02:18:47.993Z,12.13
2018-11-11T02:19:47.983Z,12.11
2018-11-11T02:20:47.989Z,12.11
2018-11-11T02:21:48.061Z,12.06
2018-11-11T02:22:47.957Z,12.11
2018-11-11T02:23:47.937Z,12.11
2018-11-11T02:24:47.925Z,12.09
2018-11-11T02:25:47.932Z,12.11
2018-11-11T02:26:47.906Z,12.21
2018-11-11T02:27:47.894Z,12.23
2018-11-11T02:28:47.879Z,12.15
2018-11-11T02:29:47.870Z,12.12
2018-11-11T02:30:47.877Z,12.26
2018-11-11T02:31:47.843Z,12.21
2018-11-11T02:32:47.832Z,12.21
2018-11-11T02:33:47.821Z,12.31
2018-11-11T02:34:47.811Z,12.21
2018-11-11T02:35:47.816Z,12.16
2018-11-11T02:36:47.787Z,12.20
2018-11-11T02:37:47.778Z,12.26
2018-11-11T02:38:47.761Z,12.19
2018-11-11T02:39:47.750Z,12.27
2018-11-11T02:40:47.779Z,12.30
2018-11-11T02:41:47.727Z,12.31
2018-11-11T02:42:47.716Z,12.29
2018-11-11T02:43:47.703Z,12.24
2018-11-11T02:44:47.690Z,12.23
2018-11-11T02:45:47.680Z,12.29
2018-11-11T02:46:47.691Z,12.30
2018-11-11T02:47:47.664Z,12.24
2018-11-11T02:48:47.647Z,12.27
2018-11-11T02:49:47.638Z,12.33
2018-11-11T02:50:47.627Z,12.29
2018-11-11T02:51:47.633Z,12.21
2018-11-11T02:52:47.602Z,12.24
2018-11-11T02:53:47.588Z,12.29
2018-11-11T02:54:47.576Z,12.27
2018-11-11T02:55:47.563Z,12.27
2018-11-11T02:56:47.568Z,12.24
2018-11-11T02:57:47.539Z,12.23
2018-11-11T02:58:47.528Z,12.30
2018-11-11T02:59:47.516Z,12.31
2018-11-11T03:00:47.508Z,12.30
2018-11-11T03:01:47.512Z,12.33
2018-11-11T03:02:47.481Z,12.24
2018-11-11T03:03:47.472Z,12.33
2018-11-11T03:04:47.458Z,12.30
2018-11-11T03:05:47.447Z,12.31
2018-11-11T03:06:47.457Z,12.31
2018-11-11T03:07:47.424Z,12.37
2018-11-11T03:08:47.414Z,12.34
2018-11-11T03:09:47.400Z,12.30
2018-11-11T03:10:47.389Z,12.31
2018-11-11T03:11:47.377Z,12.27
2018-11-11T03:12:47.384Z,12.26
2018-11-11T03:13:47.354Z,12.21
2018-11-11T03:14:47.345Z,12.24
2018-11-11T03:15:47.335Z,12.20
2018-11-11T03:16:47.320Z,12.23
2018-11-11T03:17:47.326Z,12.24
2018-11-11T03:18:47.302Z,12.30
2018-11-11T03:19:47.283Z,12.26
2018-11-11T03:20:47.272Z,12.23
2018-11-11T03:21:47.260Z,12.23
2018-11-11T03:22:47.271Z,12.30
2018-11-11T03:23:47.245Z,12.24
2018-11-11T03:24:47.225Z,12.30
2018-11-11T03:25:47.215Z,12.23
2018-11-11T03:26:47.203Z,12.29
2018-11-11T03:27:47.213Z,12.24
2018-11-11T03:28:47.179Z,12.19
2018-11-11T03:29:47.168Z,12.30
2018-11-11T03:30:47.156Z,12.29
2018-11-11T03:31:47.144Z,12.26
2018-11-11T03:32:47.152Z,12.16
2018-11-11T03:33:47.120Z,12.24
2018-11-11T03:34:47.112Z,12.24
2018-11-11T03:35:47.097Z,12.23
2018-11-11T03:36:47.090Z,12.23
2018-11-11T03:37:47.093Z,12.27
2018-11-11T03:38:47.068Z,12.21
2018-11-11T03:39:47.051Z,12.24
2018-11-11T03:40:47.040Z,12.27
2018-11-11T03:41:47.031Z,12.34
2018-11-11T03:42:47.037Z,12.33
2018-11-11T03:43:47.007Z,12.27
2018-11-11T03:44:46.996Z,12.27
2018-11-11T03:45:46.985Z,12.27
2018-11-11T03:46:46.971Z,12.27
2018-11-11T03:47:46.976Z,12.23
2018-11-11T03:48:46.949Z,12.20
2018-11-11T03:49:46.935Z,12.29
2018-11-11T03:50:46.923Z,12.23
2018-11-11T03:51:46.912Z,12.19
2018-11-11T03:52:46.925Z,12.23
2018-11-11T03:53:46.888Z,12.24
2018-11-11T03:54:46.879Z,12.26
2018-11-11T03:55:46.867Z,12.24
2018-11-11T03:56:46.872Z,12.09
2018-11-11T03:57:46.860Z,12.15
2018-11-11T03:58:46.941Z,12.15
2018-11-11T03:59:46.828Z,12.04
2018-11-11T04:00:46.808Z,12.12
2018-11-11T04:01:46.795Z,12.09
2018-11-11T04:02:46.809Z,12.13
2018-11-11T04:03:46.772Z,12.11
2018-11-11T04:04:46.760Z,12.12
2018-11-11T04:05:46.750Z,12.11
2018-11-11T04:06:46.743Z,12.11
2018-11-11T04:07:46.793Z,12.15
2018-11-11T04:08:46.717Z,12.19
2018-11-11T04:09:46.705Z,12.23
2018-11-11T04:10:46.691Z,12.21
2018-11-11T04:11:46.683Z,12.20
2018-11-11T04:12:46.687Z,12.26
2018-11-11T04:13:46.657Z,12.26
2018-11-11T04:14:46.646Z,12.19
2018-11-11T04:15:46.633Z,12.13
2018-11-11T04:16:46.621Z,12.13
2018-11-11T04:17:46.632Z,12.06
2018-11-11T04:18:46.598Z,12.11
2018-11-11T04:19:46.588Z,12.09
2018-11-11T04:20:46.577Z,12.04
2018-11-11T04:21:46.566Z,12.02
2018-11-11T04:22:46.576Z,11.94
2018-11-11T04:23:46.543Z,11.96
2018-11-11T04:24:46.553Z,11.99
2018-11-11T04:25:46.518Z,11.99
2018-11-11T04:26:46.505Z,12.02
2018-11-11T04:27:46.513Z,11.96
2018-11-11T04:28:46.482Z,11.93
2018-11-11T04:29:46.480Z,11.90
2018-11-11T04:30:46.473Z,11.90
2018-11-11T04:31:46.448Z,11.90
2018-11-11T04:32:46.459Z,11.90
2018-11-11T04:33:46.425Z,11.87
2018-11-11T04:34:46.418Z,11.80
2018-11-11T04:35:46.400Z,11.82
2018-11-11T04:36:46.390Z,11.77
2018-11-11T04:37:46.397Z,11.80
2018-11-11T04:38:46.380Z,11.80
2018-11-11T04:39:46.357Z,11.78
2018-11-11T04:40:46.343Z,11.85
2018-11-11T04:41:46.333Z,11.82
2018-11-11T04:42:46.339Z,11.77
2018-11-11T04:43:46.309Z,11.83
2018-11-11T04:44:46.296Z,11.85
2018-11-11T04:45:46.287Z,11.82
2018-11-11T04:46:46.274Z,11.82
2018-11-11T04:47:46.280Z,11.77
2018-11-11T04:48:46.254Z,11.83
2018-11-11T04:49:46.238Z,11.78
2018-11-11T04:50:46.225Z,11.82
2018-11-11T04:51:46.215Z,11.85
2018-11-11T04:52:46.228Z,11.82
2018-11-11T04:53:46.195Z,11.77
2018-11-11T04:54:46.202Z,11.80
2018-11-11T04:55:46.170Z,11.74
2018-11-11T04:56:46.158Z,11.74
2018-11-11T04:57:46.167Z,11.75
2018-11-11T04:58:46.137Z,11.75
2018-11-11T04:59:46.121Z,11.74
2018-11-11T05:00:46.113Z,11.71
2018-11-11T05:01:46.097Z,11.72
2018-11-11T05:02:46.085Z,11.64
2018-11-11T05:03:46.092Z,11.59
2018-11-11T05:04:46.260Z,11.71
2018-11-11T05:05:46.050Z,11.59
2018-11-11T05:06:46.042Z,11.62
2018-11-11T05:07:46.046Z,11.70
2018-11-11T05:08:46.035Z,11.62
2018-11-11T05:09:46.005Z,11.68
2018-11-11T05:10:45.992Z,11.67
2018-11-11T05:11:45.981Z,11.74
2018-11-11T05:12:45.969Z,11.75
2018-11-11T05:13:45.980Z,11.59
2018-11-11T05:14:45.944Z,11.57
2018-11-11T05:15:45.936Z,11.70
2018-11-11T05:16:45.922Z,11.72
2018-11-11T05:17:45.910Z,11.72
2018-11-11T05:18:45.916Z,11.70
2018-11-11T05:19:45.888Z,11.72
2018-11-11T05:20:45.876Z,11.82
2018-11-11T05:21:45.922Z,11.83
2018-11-11T05:22:45.853Z,11.83
2018-11-11T05:23:45.861Z,11.77
2018-11-11T05:24:45.832Z,11.86
2018-11-11T05:25:45.818Z,11.93
2018-11-11T05:26:45.805Z,11.93
2018-11-11T05:27:45.796Z,11.86
2018-11-11T05:28:45.814Z,11.86
2018-11-11T05:29:45.771Z,11.78
2018-11-11T05:30:45.781Z,11.89
2018-11-11T05:31:45.750Z,11.90
2018-11-11T05:32:45.735Z,11.96
2018-11-11T05:33:45.723Z,11.93
2018-11-11T05:34:45.731Z,11.93
2018-11-11T05:35:52.743Z,11.94
2018-11-11T05:36:45.692Z,12.02
2018-11-11T05:37:45.679Z,11.96
2018-11-11T05:38:45.665Z,11.99
2018-11-11T05:39:45.673Z,11.96
2018-11-11T05:40:45.642Z,11.94
2018-11-11T05:41:45.632Z,11.97
2018-11-11T05:42:45.619Z,11.97
2018-11-11T05:43:45.607Z,12.01
2018-11-11T05:44:45.616Z,12.09
2018-11-11T05:45:45.586Z,11.89
2018-11-11T05:46:45.574Z,12.02
2018-11-11T05:47:45.561Z,11.93
2018-11-11T05:48:45.552Z,11.90
2018-11-11T05:49:45.559Z,11.99
2018-11-11T05:50:45.527Z,11.94
2018-11-11T05:51:45.514Z,11.93
2018-11-11T05:52:45.504Z,11.94
2018-11-11T05:53:45.529Z,11.97
2018-11-11T05:54:45.526Z,11.99
2018-11-11T05:55:45.469Z,11.96
2018-11-11T05:56:45.455Z,11.90
2018-11-11T05:57:45.443Z,11.93
2018-11-11T05:58:45.432Z,11.86
2018-11-11T05:59:45.440Z,11.90
2018-11-11T06:00:45.412Z,11.90
2018-11-11T06:01:45.398Z,11.86
2018-11-11T06:02:45.384Z,11.86
2018-11-11T06:03:45.374Z,11.83
2018-11-11T06:04:45.381Z,11.78
2018-11-11T06:05:45.352Z,11.75
2018-11-11T06:06:45.339Z,11.75
2018-11-11T06:07:45.327Z,11.71
2018-11-11T06:08:45.316Z,11.70
2018-11-11T06:09:45.322Z,11.71
2018-11-11T06:10:45.292Z,11.74
2018-11-11T06:11:45.283Z,11.61
2018-11-11T06:12:45.271Z,11.74
2018-11-11T06:13:45.256Z,11.59
2018-11-11T06:14:45.265Z,11.62
2018-11-11T06:15:45.233Z,11.54
2018-11-11T06:16:45.226Z,11.68
2018-11-11T06:17:45.213Z,11.59
2018-11-11T06:18:45.198Z,11.54
2018-11-11T06:19:45.208Z,11.61
2018-11-11T06:20:45.175Z,11.56
2018-11-11T06:21:45.165Z,11.56
2018-11-11T06:22:45.152Z,11.56
2018-11-11T06:23:45.142Z,11.61
2018-11-11T06:24:45.149Z,11.61
2018-11-11T06:25:45.116Z,11.61
2018-11-11T06:26:45.106Z,11.57
2018-11-11T06:27:45.093Z,11.54
2018-11-11T06:28:45.081Z,11.50
2018-11-11T06:29:45.092Z,11.53
2018-11-11T06:30:45.057Z,11.53
2018-11-11T06:31:45.046Z,11.57
2018-11-11T06:32:45.032Z,11.59
2018-11-11T06:33:45.028Z,11.59
2018-11-11T06:34:45.013Z,11.61
2018-11-11T06:35:45.015Z,11.54
2018-11-11T06:36:44.986Z,11.64
2018-11-11T06:37:44.977Z,11.61
2018-11-11T06:38:44.961Z,11.59
2018-11-11T06:39:44.949Z,11.59
2018-11-11T06:40:44.956Z,11.64
2018-11-11T06:41:44.926Z,11.59
2018-11-11T06:42:44.915Z,11.50
2018-11-11T06:43:44.904Z,11.64
2018-11-11T06:44:44.890Z,11.53
2018-11-11T06:45:44.900Z,11.52
2018-11-11T06:46:44.867Z,11.52
2018-11-11T06:47:44.854Z,11.50
2018-11-11T06:48:44.843Z,11.43
2018-11-11T06:49:44.831Z,11.54
2018-11-11T06:50:44.842Z,11.46
2018-11-11T06:51:44.808Z,11.49
2018-11-11T06:52:44.802Z,11.47
2018-11-11T06:53:44.795Z,11.57
2018-11-11T06:54:44.777Z,11.53
2018-11-11T06:55:44.783Z,11.54
2018-11-11T06:56:44.748Z,11.59
2018-11-11T06:57:44.736Z,11.54
2018-11-11T06:58:44.724Z,11.59
2018-11-11T06:59:44.712Z,11.67
2018-11-11T07:00:44.700Z,11.59
2018-11-11T07:01:44.705Z,11.56
2018-11-11T07:02:44.677Z,11.59
2018-11-11T07:03:44.666Z,11.53
2018-11-11T07:04:44.657Z,11.46
2018-11-11T07:05:44.641Z,11.53
2018-11-11T07:06:44.650Z,11.49
2018-11-11T07:07:44.630Z,11.53
2018-11-11T07:08:44.606Z,11.56
2018-11-11T07:09:44.595Z,11.61
2018-11-11T07:10:44.592Z,11.62
2018-11-11T07:11:44.590Z,11.64
2018-11-11T07:12:44.559Z,11.64
2018-11-11T07:13:44.549Z,11.62
2018-11-11T07:14:44.535Z,11.78
2018-11-11T07:15:44.527Z,11.57
2018-11-11T07:16:44.529Z,11.70
2018-11-11T07:17:44.499Z,11.74
2018-11-11T07:18:44.487Z,11.68
2018-11-11T07:19:44.476Z,11.71
2018-11-11T07:20:44.468Z,11.83
2018-11-11T07:21:44.472Z,11.77
2018-11-11T07:22:44.441Z,11.74
2018-11-11T07:23:44.528Z,11.80
2018-11-11T07:24:44.422Z,11.72
2018-11-11T07:25:44.405Z,11.77
2018-11-11T07:26:44.419Z,11.80
2018-11-11T07:27:44.385Z,11.85
2018-11-11T07:28:44.378Z,11.87
2018-11-11T07:29:44.361Z,11.94
2018-11-11T07:30:44.350Z,11.89
2018-11-11T07:31:44.354Z,11.97
2018-11-11T07:32:44.329Z,11.94
2018-11-11T07:33:44.317Z,12.05
2018-11-11T07:34:44.302Z,12.08
2018-11-11T07:35:44.291Z,12.09
2018-11-11T07:36:44.303Z,12.08
2018-11-11T07:37:44.265Z,12.13
2018-11-11T07:38:44.256Z,12.11
2018-11-11T07:39:44.244Z,12.26
2018-11-11T07:40:44.233Z,12.21
2018-11-11T07:41:44.240Z,12.27
2018-11-11T07:42:44.212Z,12.29
2018-11-11T07:43:44.202Z,12.33
2018-11-11T07:44:44.185Z,12.33
2018-11-11T07:45:44.174Z,12.33
2018-11-11T07:46:44.184Z,12.33
2018-11-11T07:47:44.169Z,12.44
2018-11-11T07:48:44.140Z,12.46
2018-11-11T07:49:44.128Z,12.41
2018-11-11T07:50:44.121Z,12.34
2018-11-11T07:51:44.108Z,12.44
2018-11-11T07:52:44.112Z,12.39
2018-11-11T07:53:44.081Z,12.49
2018-11-11T07:54:44.107Z,12.51
2018-11-11T07:55:44.060Z,12.57
2018-11-11T07:56:44.046Z,12.56
2018-11-11T07:57:44.057Z,12.54
2018-11-11T07:58:44.023Z,12.63
2018-11-11T07:59:44.010Z,12.66
2018-11-11T08:00:44.000Z,12.57
2018-11-11T08:01:44.108Z,12.71
2018-11-11T08:02:43.976Z,12.62
2018-11-11T08:03:43.964Z,12.64
2018-11-11T08:04:43.955Z,12.69
2018-11-11T08:05:43.940Z,12.69
2018-11-11T08:06:43.948Z,12.66
2018-11-11T08:07:43.917Z,12.60
2018-11-11T08:08:43.907Z,12.56
2018-11-11T08:09:43.894Z,12.54
2018-11-11T08:10:43.888Z,12.51
2018-11-11T08:11:43.891Z,12.42
2018-11-11T08:12:43.860Z,12.42
2018-11-11T08:13:43.847Z,12.41
2018-11-11T08:14:43.837Z,12.39
2018-11-11T08:15:43.826Z,12.41
2018-11-11T08:16:43.850Z,12.57
2018-11-11T08:17:43.800Z,12.62
2018-11-11T08:18:43.790Z,13.40
2018-11-11T08:19:43.780Z,13.30
2018-11-11T08:20:43.768Z,13.11
2018-11-11T08:21:43.773Z,12.93
2018-11-11T08:22:43.744Z,12.88
2018-11-11T08:23:43.731Z,12.82
2018-11-11T08:24:43.720Z,13.02
2018-11-11T08:25:43.708Z,13.06
2018-11-11T08:26:43.719Z,13.21
2018-11-11T08:27:43.683Z,13.52
2018-11-11T08:28:43.672Z,13.43
2018-11-11T08:29:43.660Z,13.30
2018-11-11T08:30:43.650Z,13.25
2018-11-11T08:31:43.638Z,13.18
2018-11-11T08:32:43.643Z,13.15
2018-11-11T08:33:43.618Z,13.03
2018-11-11T08:34:43.602Z,13.06
2018-11-11T08:35:43.594Z,12.97
2018-11-11T08:36:43.580Z,13.00
2018-11-11T08:37:43.592Z,12.99
2018-11-11T08:38:43.558Z,12.95
2018-11-11T08:39:43.544Z,13.03
2018-11-11T08:40:43.641Z,12.92
2018-11-11T08:41:43.519Z,13.04
2018-11-11T08:42:43.530Z,13.00
2018-11-11T08:43:43.507Z,12.88
2018-11-11T08:44:43.487Z,12.89
2018-11-11T08:45:43.472Z,13.00
2018-11-11T08:46:43.461Z,12.84
2018-11-11T08:47:43.466Z,12.85
2018-11-11T08:48:43.437Z,12.84
2018-11-11T08:49:43.425Z,12.92
2018-11-11T08:50:43.413Z,12.85
2018-11-11T08:51:43.405Z,12.84
2018-11-11T08:52:43.413Z,12.96
2018-11-11T08:53:43.379Z,12.92
2018-11-11T08:54:43.367Z,12.99
2018-11-11T08:55:43.356Z,12.97
2018-11-11T08:56:43.343Z,13.04
2018-11-11T08:57:43.391Z,12.97
2018-11-11T08:58:43.340Z,13.04
2018-11-11T08:59:43.308Z,13.02
2018-11-11T09:00:43.298Z,13.03
2018-11-11T09:01:43.285Z,13.02
2018-11-11T09:02:43.275Z,13.02
2018-11-11T09:03:43.282Z,13.00
2018-11-11T09:04:43.275Z,13.06
2018-11-11T09:05:43.240Z,13.29
2018-11-11T09:06:43.228Z,13.37
2018-11-11T09:07:43.217Z,13.46
2018-11-11T09:08:43.222Z,13.44
2018-11-11T09:09:43.192Z,13.49
2018-11-11T09:10:43.180Z,13.44
2018-11-11T09:11:43.168Z,13.46
2018-11-11T09:12:43.157Z,13.40
2018-11-11T09:13:43.170Z,13.52
2018-11-11T09:14:43.132Z,13.59
2018-11-11T09:15:43.122Z,13.65
2018-11-11T09:16:43.110Z,13.76
2018-11-11T09:17:43.097Z,13.77
2018-11-11T09:18:43.105Z,13.96
2018-11-11T09:19:43.078Z,14.12
2018-11-11T09:20:43.062Z,14.09
2018-11-11T09:21:43.050Z,13.95
2018-11-11T09:22:43.039Z,14.07
2018-11-11T09:23:43.128Z,14.25
2018-11-11T09:24:43.018Z,16.07
2018-11-11T09:25:43.003Z,17.11
2018-11-11T09:26:42.997Z,17.79
2018-11-11T09:27:42.987Z,17.97
2018-11-11T09:28:42.967Z,16.89
2018-11-11T09:29:43.001Z,16.09
2018-11-11T09:30:42.946Z,15.59
2018-11-11T09:31:42.933Z,15.17
2018-11-11T09:32:42.926Z,15.01
2018-11-11T09:33:42.908Z,15.01
2018-11-11T09:34:42.914Z,14.91
2018-11-11T09:35:42.883Z,14.91
2018-11-11T09:36:42.871Z,14.99
2018-11-11T09:37:42.859Z,14.91
2018-11-11T09:38:42.849Z,15.74
2018-11-11T09:39:42.859Z,16.23
2018-11-11T09:40:42.828Z,16.06
2018-11-11T09:41:42.815Z,16.26
2018-11-11T09:42:42.935Z,15.85
2018-11-11T09:43:42.790Z,15.42
2018-11-11T09:44:42.816Z,15.19
2018-11-11T09:45:42.765Z,15.15
2018-11-11T09:46:42.753Z,15.06
2018-11-11T09:47:42.760Z,14.88
2018-11-11T09:48:42.729Z,14.65
2018-11-11T09:49:42.717Z,14.54
2018-11-11T09:50:42.723Z,14.50
2018-11-11T09:51:42.695Z,14.49
2018-11-11T09:52:42.751Z,14.52
2018-11-11T09:53:42.672Z,14.54
2018-11-11T09:54:42.661Z,14.53
2018-11-11T09:55:42.663Z,14.57
2018-11-11T09:56:42.634Z,14.57
2018-11-11T09:57:42.624Z,14.62
2018-11-11T09:58:42.719Z,14.72
2018-11-11T09:59:42.623Z,15.17
2018-11-11T10:00:42.608Z,15.09
2018-11-11T10:01:42.576Z,14.99
2018-11-11T10:02:42.564Z,14.98
2018-11-11T10:03:42.556Z,15.20
2018-11-11T10:04:42.545Z,16.49
2018-11-11T10:05:42.555Z,17.22
2018-11-11T10:06:42.642Z,16.55
2018-11-11T10:07:42.508Z,16.71
2018-11-11T10:08:42.500Z,17.78
2018-11-11T10:09:42.483Z,18.29
2018-11-11T10:10:42.494Z,19.14
2018-11-11T10:11:42.462Z,19.97
2018-11-11T10:12:42.507Z,20.43
2018-11-11T10:13:42.439Z,20.62
2018-11-11T10:14:42.425Z,19.60
2018-11-11T10:15:42.412Z,20.15
2018-11-11T10:16:42.424Z,19.97
2018-11-11T10:17:42.392Z,20.03
2018-11-11T10:18:42.381Z,20.38
2018-11-11T10:19:42.371Z,20.62
2018-11-11T10:20:42.422Z,21.08
2018-11-11T10:21:42.369Z,20.76
2018-11-11T10:22:42.335Z,21.39
2018-11-11T10:23:42.357Z,21.24
2018-11-11T10:24:42.308Z,21.35
2018-11-11T10:25:42.319Z,21.42
2018-11-11T10:26:42.288Z,20.16
2018-11-11T10:27:42.289Z,19.93
2018-11-11T10:28:42.281Z,19.84
2018-11-11T10:29:55.837Z,18.94
2018-11-11T10:30:55.842Z,18.19
2018-11-11T10:31:55.812Z,17.71
2018-11-11T10:32:55.798Z,17.06
2018-11-11T10:33:55.790Z,16.83
2018-11-11T10:34:55.809Z,16.86
2018-11-11T10:35:55.767Z,16.68
2018-11-11T10:36:55.753Z,16.67
2018-11-11T10:37:55.742Z,16.62
2018-11-11T10:38:55.879Z,16.53
2018-11-11T10:39:55.717Z,16.49
2018-11-11T10:40:55.725Z,16.42
2018-11-11T10:41:55.726Z,16.40
2018-11-11T10:42:55.683Z,16.34
2018-11-11T10:43:55.670Z,16.35
2018-11-11T10:44:55.660Z,16.40
2018-11-11T10:45:55.670Z,16.34
2018-11-11T10:46:55.636Z,16.15
2018-11-11T10:47:55.626Z,16.03
2018-11-11T10:48:55.615Z,16.14
2018-11-11T10:49:55.605Z,17.20
2018-11-11T10:50:55.615Z,17.35
2018-11-11T10:51:55.582Z,17.29
2018-11-11T10:52:55.570Z,17.04
2018-11-11T10:53:55.557Z,17.15
2018-11-11T10:54:55.553Z,16.96
2018-11-11T10:55:55.533Z,16.60
2018-11-11T10:56:55.541Z,16.68
2018-11-11T10:57:55.515Z,16.99
2018-11-11T10:58:55.501Z,17.13
2018-11-11T10:59:55.497Z,16.70
2018-11-11T11:00:55.476Z,16.35
2018-11-11T11:01:55.482Z,16.42
2018-11-11T11:02:55.455Z,16.44
2018-11-11T11:03:55.441Z,16.42
2018-11-11T11:04:55.436Z,16.52
2018-11-11T11:05:55.488Z,16.70
2018-11-11T11:06:55.428Z,17.28
2018-11-11T11:07:55.397Z,17.54
2018-11-11T11:08:55.388Z,18.12
2018-11-11T11:09:55.375Z,17.95
2018-11-11T11:10:55.365Z,18.19
2018-11-11T11:11:55.437Z,17.76
2018-11-11T11:12:55.339Z,17.53
2018-11-11T11:13:55.402Z,18.07
2018-11-11T11:14:55.322Z,18.24
2018-11-11T11:15:55.309Z,18.12
2018-11-11T11:16:55.314Z,17.66
2018-11-11T11:17:55.283Z,17.62
2018-11-11T11:18:55.272Z,17.57
2018-11-11T11:19:55.259Z,17.88
2018-11-11T11:20:55.247Z,18.21
2018-11-11T11:21:55.255Z,18.12
2018-11-11T11:22:55.271Z,17.70
2018-11-11T11:23:55.213Z,17.22
2018-11-11T11:24:55.201Z,16.88
2018-11-11T11:25:55.189Z,16.56
2018-11-11T11:26:55.198Z,16.34
2018-11-11T11:27:55.171Z,16.33
2018-11-11T11:28:55.154Z,16.31
2018-11-11T11:29:55.145Z,16.14
2018-11-11T11:30:55.134Z,15.94
2018-11-11T11:31:55.195Z,15.89
2018-11-11T11:32:55.110Z,16.04
2018-11-11T11:33:55.100Z,16.11
2018-11-11T11:34:55.086Z,16.04
2018-11-11T11:35:55.076Z,16.07
2018-11-11T11:36:55.087Z,16.04
2018-11-11T11:37:55.052Z,16.04
2018-11-11T11:38:55.042Z,16.22
2018-11-11T11:39:55.031Z,16.20
2018-11-11T11:40:55.017Z,16.22
2018-11-11T11:41:55.007Z,16.25
2018-11-11T11:42:55.017Z,16.22
2018-11-11T11:43:55.025Z,16.23
2018-11-11T11:44:54.975Z,16.48
2018-11-11T11:45:54.958Z,16.49
2018-11-11T11:46:54.947Z,16.48
2018-11-11T11:49:03.672Z,16.20
2018-11-11T11:50:03.795Z,16.18
2018-11-11T11:51:03.633Z,15.78
2018-11-11T11:52:03.623Z,15.89
2018-11-11T11:53:03.711Z,15.92
2018-11-11T11:54:03.620Z,15.81
2018-11-11T11:55:03.590Z,15.68
2018-11-11T11:56:03.576Z,15.79
2018-11-11T11:57:03.562Z,15.70
2018-11-11T11:58:03.615Z,15.75
2018-11-11T11:59:03.558Z,15.72
2018-11-11T12:00:03.528Z,15.84
2018-11-11T12:01:03.514Z,15.97
2018-11-11T12:02:03.544Z,16.04
2018-11-11T12:03:03.491Z,16.04
2018-11-11T12:04:03.498Z,16.14
2018-11-11T12:05:03.470Z,15.99
2018-11-11T12:06:03.459Z,15.93
2018-11-11T12:07:03.445Z,15.76
2018-11-11T12:08:03.433Z,15.63
2018-11-11T12:09:03.488Z,15.57
2018-11-11T12:10:03.412Z,15.49
2018-11-11T12:11:03.397Z,15.56
2018-11-11T12:12:03.386Z,15.48
2018-11-11T12:13:03.384Z,15.54
2018-11-11T12:14:03.382Z,15.51
2018-11-11T12:15:03.355Z,15.48
2018-11-11T12:16:03.345Z,15.48
2018-11-11T12:17:03.338Z,15.38
2018-11-11T12:18:03.317Z,15.42
2018-11-11T12:19:03.325Z,15.31
2018-11-11T12:20:03.298Z,15.38
2018-11-11T12:21:03.285Z,15.26
2018-11-11T12:22:03.271Z,15.30
2018-11-11T12:23:03.263Z,15.35
2018-11-11T12:24:03.270Z,15.27
2018-11-11T12:25:03.244Z,15.27
2018-11-11T12:26:03.226Z,15.23
2018-11-11T12:27:03.221Z,15.23
2018-11-11T12:28:03.209Z,15.23
2018-11-11T12:29:03.212Z,15.20
2018-11-11T12:30:03.183Z,15.27
2018-11-11T12:31:03.170Z,15.31
2018-11-11T12:32:03.159Z,15.41
2018-11-11T12:33:03.147Z,15.64
2018-11-11T12:34:03.153Z,15.67
2018-11-11T12:35:03.192Z,15.75
2018-11-11T12:36:03.114Z,15.64
2018-11-11T12:37:03.102Z,15.64
2018-11-11T12:38:03.089Z,15.52
2018-11-11T12:39:03.160Z,15.49
2018-11-11T12:40:03.261Z,15.60
2018-11-11T12:41:03.057Z,15.63
2018-11-11T12:42:03.043Z,15.46
2018-11-11T12:43:03.033Z,15.43
2018-11-11T12:44:03.041Z,15.39
2018-11-11T12:45:03.009Z,15.31
2018-11-11T12:46:02.999Z,15.35
2018-11-11T12:47:03.006Z,15.24
2018-11-11T12:48:02.975Z,15.21
2018-11-11T12:49:03.000Z,15.19
2018-11-11T12:50:02.974Z,15.11
2018-11-11T12:51:02.944Z,15.13
2018-11-11T12:52:02.931Z,15.15
2018-11-11T12:53:02.919Z,14.99
2018-11-11T12:54:02.929Z,15.08